sensor_id;sensor_type;location;lat;lon;timestamp;pressure;altitude;pressure_sealevel;temperature;humidity
71938;BME280;59810;48.800;9.086;2023-03-01T00:02:22;98378.50;;;-2.52;80.61
71938;BME280;59810;48.800;9.086;2023-03-01T00:04:48;98376.69;;;-2.51;80.47
71938;BME280;59810;48.800;9.086;2023-03-01T00:07:14;98387.94;;;-2.49;81.01
71938;BME280;59810;48.800;9.086;2023-03-01T00:09:39;98386.13;;;-2.48;79.87
71938;BME280;59810;48.800;9.086;2023-03-01T00:12:05;98383.56;;;-2.58;80.39
71938;BME280;59810;48.800;9.086;2023-03-01T00:14:31;98382.72;;;-2.59;80.64
71938;BME280;59810;48.800;9.086;2023-03-01T00:16:59;98387.59;;;-2.64;81.16
71938;BME280;59810;48.800;9.086;2023-03-01T00:19:24;98380.78;;;-2.66;80.57
71938;BME280;59810;48.800;9.086;2023-03-01T00:21:52;98378.16;;;-2.66;80.59
71938;BME280;59810;48.800;9.086;2023-03-01T00:24:17;98380.94;;;-2.68;80.76
71938;BME280;59810;48.800;9.086;2023-03-01T00:26:43;98383.97;;;-2.63;81.05
71938;BME280;59810;48.800;9.086;2023-03-01T00:29:11;98386.59;;;-2.63;80.51
71938;BME280;59810;48.800;9.086;2023-03-01T00:31:36;98385.41;;;-2.68;80.78
71938;BME280;59810;48.800;9.086;2023-03-01T00:34:04;98381.69;;;-2.75;81.30
71938;BME280;59810;48.800;9.086;2023-03-01T00:36:32;98384.63;;;-2.78;80.71
71938;BME280;59810;48.800;9.086;2023-03-01T00:38:58;98380.19;;;-2.78;80.63
71938;BME280;59810;48.800;9.086;2023-03-01T00:41:24;98378.22;;;-2.76;80.98
71938;BME280;59810;48.800;9.086;2023-03-01T00:43:52;98383.50;;;-2.76;81.39
71938;BME280;59810;48.800;9.086;2023-03-01T00:46:21;98383.72;;;-2.69;80.99
71938;BME280;59810;48.800;9.086;2023-03-01T00:48:47;98376.84;;;-2.80;81.36
71938;BME280;59810;48.800;9.086;2023-03-01T00:51:16;98375.72;;;-2.77;81.71
71938;BME280;59810;48.800;9.086;2023-03-01T00:53:42;98370.06;;;-2.83;81.23
71938;BME280;59810;48.800;9.086;2023-03-01T00:56:10;98376.84;;;-2.80;81.94
71938;BME280;59810;48.800;9.086;2023-03-01T00:58:36;98379.09;;;-2.85;81.51
71938;BME280;59810;48.800;9.086;2023-03-01T01:01:10;98383.84;;;-2.89;81.02
71938;BME280;59810;48.800;9.086;2023-03-01T01:03:46;98376.63;;;-2.96;81.97
71938;BME280;59810;48.800;9.086;2023-03-01T01:06:26;98381.38;;;-3.00;82.15
71938;BME280;59810;48.800;9.086;2023-03-01T01:08:53;98384.72;;;-2.98;81.27
71938;BME280;59810;48.800;9.086;2023-03-01T01:11:20;98373.00;;;-2.95;81.99
71938;BME280;59810;48.800;9.086;2023-03-01T01:13:47;98381.09;;;-2.97;82.04
71938;BME280;59810;48.800;9.086;2023-03-01T01:16:13;98374.50;;;-3.10;82.33
71938;BME280;59810;48.800;9.086;2023-03-01T01:18:45;98369.34;;;-3.12;82.10
71938;BME280;59810;48.800;9.086;2023-03-01T01:21:13;98370.03;;;-3.10;82.00
71938;BME280;59810;48.800;9.086;2023-03-01T01:23:40;98374.19;;;-3.07;82.02
71938;BME280;59810;48.800;9.086;2023-03-01T01:26:11;98373.91;;;-3.04;81.84
71938;BME280;59810;48.800;9.086;2023-03-01T01:28:37;98371.41;;;-3.06;81.87
71938;BME280;59810;48.800;9.086;2023-03-01T01:31:04;98362.50;;;-3.05;81.70
71938;BME280;59810;48.800;9.086;2023-03-01T01:33:30;98365.28;;;-3.06;82.26
71938;BME280;59810;48.800;9.086;2023-03-01T01:35:56;98358.88;;;-3.04;82.24
71938;BME280;59810;48.800;9.086;2023-03-01T01:38:22;98348.84;;;-3.00;82.26
71938;BME280;59810;48.800;9.086;2023-03-01T01:40:50;98339.94;;;-2.99;81.57
71938;BME280;59810;48.800;9.086;2023-03-01T01:43:22;98345.91;;;-2.97;82.07
71938;BME280;59810;48.800;9.086;2023-03-01T01:45:49;98336.19;;;-2.97;82.29
71938;BME280;59810;48.800;9.086;2023-03-01T01:48:19;98340.94;;;-3.00;81.84
71938;BME280;59810;48.800;9.086;2023-03-01T01:50:55;98340.41;;;-3.04;81.55
71938;BME280;59810;48.800;9.086;2023-03-01T01:53:24;98346.66;;;-3.05;81.95
71938;BME280;59810;48.800;9.086;2023-03-01T01:55:53;98338.19;;;-3.08;82.07
71938;BME280;59810;48.800;9.086;2023-03-01T01:58:22;98338.63;;;-3.13;81.73
71938;BME280;59810;48.800;9.086;2023-03-01T02:00:49;98345.50;;;-3.20;81.96
71938;BME280;59810;48.800;9.086;2023-03-01T02:03:20;98332.00;;;-3.27;82.84
71938;BME280;59810;48.800;9.086;2023-03-01T02:08:45;98331.47;;;-3.30;82.46
71938;BME280;59810;48.800;9.086;2023-03-01T02:11:13;98324.25;;;-3.28;82.71
71938;BME280;59810;48.800;9.086;2023-03-01T02:13:46;98322.03;;;-3.23;82.35
71938;BME280;59810;48.800;9.086;2023-03-01T02:16:14;98318.09;;;-3.19;82.71
71938;BME280;59810;48.800;9.086;2023-03-01T02:18:41;98314.59;;;-3.10;83.08
71938;BME280;59810;48.800;9.086;2023-03-01T02:23:56;98304.34;;;-2.95;82.71
71938;BME280;59810;48.800;9.086;2023-03-01T02:26:33;98307.53;;;-2.92;82.25
71938;BME280;59810;48.800;9.086;2023-03-01T02:29:02;98304.31;;;-2.86;82.08
71938;BME280;59810;48.800;9.086;2023-03-01T02:31:27;98292.97;;;-2.78;82.18
71938;BME280;59810;48.800;9.086;2023-03-01T02:34:14;98295.16;;;-2.73;82.25
71938;BME280;59810;48.800;9.086;2023-03-01T02:36:44;98288.44;;;-2.68;81.70
71938;BME280;59810;48.800;9.086;2023-03-01T02:39:15;98286.34;;;-2.64;80.79
71938;BME280;59810;48.800;9.086;2023-03-01T02:41:50;98283.94;;;-2.58;80.76
71938;BME280;59810;48.800;9.086;2023-03-01T02:44:20;98281.00;;;-2.55;80.59
71938;BME280;59810;48.800;9.086;2023-03-01T02:46:48;98287.34;;;-2.47;80.83
71938;BME280;59810;48.800;9.086;2023-03-01T02:49:23;98272.22;;;-2.37;80.05
71938;BME280;59810;48.800;9.086;2023-03-01T02:53:11;98276.22;;;-2.33;80.20
71938;BME280;59810;48.800;9.086;2023-03-01T02:55:08;98275.47;;;-2.26;80.02
71938;BME280;59810;48.800;9.086;2023-03-01T02:57:36;98274.84;;;-2.20;79.47
71938;BME280;59810;48.800;9.086;2023-03-01T03:00:09;98270.91;;;-2.15;79.43
71938;BME280;59810;48.800;9.086;2023-03-01T03:02:45;98262.50;;;-2.11;79.14
71938;BME280;59810;48.800;9.086;2023-03-01T03:05:14;98264.00;;;-2.08;78.91
71938;BME280;59810;48.800;9.086;2023-03-01T03:07:42;98257.38;;;-2.12;79.22
71938;BME280;59810;48.800;9.086;2023-03-01T03:10:12;98267.50;;;-2.08;80.03
71938;BME280;59810;48.800;9.086;2023-03-01T03:12:41;98257.72;;;-2.07;79.25
71938;BME280;59810;48.800;9.086;2023-03-01T03:15:08;98259.09;;;-2.03;79.51
71938;BME280;59810;48.800;9.086;2023-03-01T03:17:39;98251.22;;;-1.95;78.64
71938;BME280;59810;48.800;9.086;2023-03-01T03:20:08;98260.28;;;-1.98;78.50
71938;BME280;59810;48.800;9.086;2023-03-01T03:22:38;98248.56;;;-1.95;78.71
71938;BME280;59810;48.800;9.086;2023-03-01T03:25:06;98247.13;;;-1.90;78.36
71938;BME280;59810;48.800;9.086;2023-03-01T03:27:39;98247.63;;;-1.86;78.07
71938;BME280;59810;48.800;9.086;2023-03-01T03:30:09;98253.91;;;-1.87;78.71
71938;BME280;59810;48.800;9.086;2023-03-01T03:32:38;98248.31;;;-1.84;78.36
71938;BME280;59810;48.800;9.086;2023-03-01T03:35:05;98246.84;;;-1.78;78.28
71938;BME280;59810;48.800;9.086;2023-03-01T03:37:36;98251.63;;;-1.82;78.67
71938;BME280;59810;48.800;9.086;2023-03-01T03:40:21;98244.47;;;-1.90;78.25
71938;BME280;59810;48.800;9.086;2023-03-01T03:42:46;98241.34;;;-1.85;78.40
71938;BME280;59810;48.800;9.086;2023-03-01T03:45:11;98248.00;;;-1.81;78.42
71938;BME280;59810;48.800;9.086;2023-03-01T03:50:06;98242.03;;;-1.83;79.31
71938;BME280;59810;48.800;9.086;2023-03-01T03:52:32;98243.38;;;-1.79;78.73
71938;BME280;59810;48.800;9.086;2023-03-01T03:54:57;98245.03;;;-1.78;78.13
71938;BME280;59810;48.800;9.086;2023-03-01T03:57:22;98246.53;;;-1.75;78.09
71938;BME280;59810;48.800;9.086;2023-03-01T03:59:47;98243.06;;;-1.76;77.69
71938;BME280;59810;48.800;9.086;2023-03-01T04:02:13;98241.44;;;-1.69;77.65
71938;BME280;59810;48.800;9.086;2023-03-01T04:04:47;98238.78;;;-1.69;77.58
71938;BME280;59810;48.800;9.086;2023-03-01T04:07:15;98229.69;;;-1.66;77.51
71938;BME280;59810;48.800;9.086;2023-03-01T04:09:42;98224.94;;;-1.63;77.60
71938;BME280;59810;48.800;9.086;2023-03-01T04:12:08;98229.91;;;-1.60;77.30
71938;BME280;59810;48.800;9.086;2023-03-01T04:14:33;98214.34;;;-1.63;77.42
71938;BME280;59810;48.800;9.086;2023-03-01T04:17:01;98218.28;;;-1.67;78.02
71938;BME280;59810;48.800;9.086;2023-03-01T04:19:29;98221.31;;;-1.62;77.31
71938;BME280;59810;48.800;9.086;2023-03-01T04:22:04;98219.00;;;-1.57;77.07
71938;BME280;59810;48.800;9.086;2023-03-01T04:24:35;98210.41;;;-1.59;76.55
71938;BME280;59810;48.800;9.086;2023-03-01T04:27:01;98217.84;;;-1.62;77.15
71938;BME280;59810;48.800;9.086;2023-03-01T04:29:26;98211.56;;;-1.61;76.88
71938;BME280;59810;48.800;9.086;2023-03-01T04:31:52;98221.66;;;-1.57;77.06
71938;BME280;59810;48.800;9.086;2023-03-01T04:34:18;98213.56;;;-1.55;76.59
71938;BME280;59810;48.800;9.086;2023-03-01T04:36:43;98209.09;;;-1.54;76.84
71938;BME280;59810;48.800;9.086;2023-03-01T04:39:08;98211.38;;;-1.60;77.07
71938;BME280;59810;48.800;9.086;2023-03-01T04:41:38;98219.66;;;-1.63;77.78
71938;BME280;59810;48.800;9.086;2023-03-01T04:44:08;98218.19;;;-1.57;77.17
71938;BME280;59810;48.800;9.086;2023-03-01T04:46:34;98221.81;;;-1.58;77.54
71938;BME280;59810;48.800;9.086;2023-03-01T04:49:00;98212.66;;;-1.64;77.70
71938;BME280;59810;48.800;9.086;2023-03-01T04:51:26;98223.41;;;-1.65;77.69
71938;BME280;59810;48.800;9.086;2023-03-01T04:53:51;98217.84;;;-1.62;77.75
71938;BME280;59810;48.800;9.086;2023-03-01T04:56:16;98219.34;;;-1.60;78.15
71938;BME280;59810;48.800;9.086;2023-03-01T04:58:46;98209.06;;;-1.63;77.75
71938;BME280;59810;48.800;9.086;2023-03-01T05:01:14;98206.91;;;-1.59;77.59
71938;BME280;59810;48.800;9.086;2023-03-01T05:03:52;98207.59;;;-1.57;77.21
71938;BME280;59810;48.800;9.086;2023-03-01T05:06:20;98207.28;;;-1.54;77.27
71938;BME280;59810;48.800;9.086;2023-03-01T05:08:46;98212.09;;;-1.49;77.40
71938;BME280;59810;48.800;9.086;2023-03-01T05:11:11;98218.88;;;-1.47;77.16
71938;BME280;59810;48.800;9.086;2023-03-01T05:13:38;98212.44;;;-1.44;77.03
71938;BME280;59810;48.800;9.086;2023-03-01T05:16:06;98215.75;;;-1.42;77.55
71938;BME280;59810;48.800;9.086;2023-03-01T05:18:33;98210.28;;;-1.41;76.61
71938;BME280;59810;48.800;9.086;2023-03-01T05:21:10;98208.16;;;-1.37;76.80
71938;BME280;59810;48.800;9.086;2023-03-01T05:23:41;98207.00;;;-1.35;76.68
71938;BME280;59810;48.800;9.086;2023-03-01T05:26:07;98216.91;;;-1.45;77.23
71938;BME280;59810;48.800;9.086;2023-03-01T05:28:33;98203.16;;;-1.40;77.27
71938;BME280;59810;48.800;9.086;2023-03-01T05:30:59;98215.09;;;-1.36;76.73
71938;BME280;59810;48.800;9.086;2023-03-01T05:33:25;98207.16;;;-1.36;76.80
71938;BME280;59810;48.800;9.086;2023-03-01T05:35:50;98210.78;;;-1.37;77.90
71938;BME280;59810;48.800;9.086;2023-03-01T05:38:17;98198.22;;;-1.35;77.00
71938;BME280;59810;48.800;9.086;2023-03-01T05:40:47;98208.63;;;-1.42;76.96
71938;BME280;59810;48.800;9.086;2023-03-01T05:43:14;98211.75;;;-1.46;77.69
71938;BME280;59810;48.800;9.086;2023-03-01T05:45:40;98212.09;;;-1.49;77.63
71938;BME280;59810;48.800;9.086;2023-03-01T05:48:07;98215.25;;;-1.46;77.85
71938;BME280;59810;48.800;9.086;2023-03-01T05:50:35;98212.09;;;-1.41;77.93
71938;BME280;59810;48.800;9.086;2023-03-01T05:53:04;98212.25;;;-1.43;77.92
71938;BME280;59810;48.800;9.086;2023-03-01T05:55:33;98210.13;;;-1.39;77.75
71938;BME280;59810;48.800;9.086;2023-03-01T05:58:00;98206.16;;;-1.35;77.63
71938;BME280;59810;48.800;9.086;2023-03-01T06:00:26;98199.88;;;-1.34;77.76
71938;BME280;59810;48.800;9.086;2023-03-01T06:02:54;98197.72;;;-1.31;77.75
71938;BME280;59810;48.800;9.086;2023-03-01T06:05:20;98206.16;;;-1.35;77.69
71938;BME280;59810;48.800;9.086;2023-03-01T06:07:46;98189.13;;;-1.33;77.13
71938;BME280;59810;48.800;9.086;2023-03-01T06:10:12;98201.69;;;-1.35;77.01
71938;BME280;59810;48.800;9.086;2023-03-01T06:12:40;98202.34;;;-1.41;77.55
71938;BME280;59810;48.800;9.086;2023-03-01T06:15:08;98200.34;;;-1.47;77.74
71938;BME280;59810;48.800;9.086;2023-03-01T06:17:35;98199.16;;;-1.52;78.94
71938;BME280;59810;48.800;9.086;2023-03-01T06:20:25;98204.78;;;-1.55;79.04
71938;BME280;59810;48.800;9.086;2023-03-01T06:22:52;98189.53;;;-1.62;79.66
71938;BME280;59810;48.800;9.086;2023-03-01T06:25:20;98209.34;;;-1.66;79.18
71938;BME280;59810;48.800;9.086;2023-03-01T06:27:47;98199.72;;;-1.75;79.33
71938;BME280;59810;48.800;9.086;2023-03-01T06:30:15;98201.53;;;-1.75;79.46
71938;BME280;59810;48.800;9.086;2023-03-01T06:32:44;98200.88;;;-1.77;79.44
71938;BME280;59810;48.800;9.086;2023-03-01T06:35:14;98197.75;;;-1.73;79.23
71938;BME280;59810;48.800;9.086;2023-03-01T06:37:42;98188.16;;;-1.74;79.92
71938;BME280;59810;48.800;9.086;2023-03-01T06:40:09;98192.28;;;-1.71;80.09
71938;BME280;59810;48.800;9.086;2023-03-01T06:42:37;98190.16;;;-1.68;79.61
71938;BME280;59810;48.800;9.086;2023-03-01T06:45:05;98198.09;;;-1.68;79.19
71938;BME280;59810;48.800;9.086;2023-03-01T06:47:31;98192.97;;;-1.69;79.60
71938;BME280;59810;48.800;9.086;2023-03-01T06:49:58;98191.13;;;-1.69;79.80
71938;BME280;59810;48.800;9.086;2023-03-01T06:52:26;98194.00;;;-1.62;79.96
71938;BME280;59810;48.800;9.086;2023-03-01T06:54:54;98208.41;;;-1.57;79.82
71938;BME280;59810;48.800;9.086;2023-03-01T06:57:19;98199.16;;;-1.52;79.73
71938;BME280;59810;48.800;9.086;2023-03-01T06:59:46;98207.63;;;-1.49;78.32
71938;BME280;59810;48.800;9.086;2023-03-01T07:02:14;98203.13;;;-1.57;78.83
71938;BME280;59810;48.800;9.086;2023-03-01T07:04:40;98204.28;;;-1.59;79.14
71938;BME280;59810;48.800;9.086;2023-03-01T07:07:08;98195.84;;;-1.54;79.09
71938;BME280;59810;48.800;9.086;2023-03-01T07:09:36;98190.53;;;-1.63;78.90
71938;BME280;59810;48.800;9.086;2023-03-01T07:12:02;98189.00;;;-1.65;79.70
71938;BME280;59810;48.800;9.086;2023-03-01T07:14:27;98188.50;;;-1.69;80.17
71938;BME280;59810;48.800;9.086;2023-03-01T07:16:54;98193.78;;;-1.69;79.66
71938;BME280;59810;48.800;9.086;2023-03-01T07:19:20;98188.81;;;-1.72;79.46
71938;BME280;59810;48.800;9.086;2023-03-01T07:21:45;98187.66;;;-1.69;79.77
71938;BME280;59810;48.800;9.086;2023-03-01T07:24:10;98182.03;;;-1.74;79.66
71938;BME280;59810;48.800;9.086;2023-03-01T07:26:38;98174.75;;;-1.72;80.15
71938;BME280;59810;48.800;9.086;2023-03-01T07:29:05;98185.84;;;-1.69;80.02
71938;BME280;59810;48.800;9.086;2023-03-01T07:31:31;98171.47;;;-1.66;79.75
71938;BME280;59810;48.800;9.086;2023-03-01T07:33:59;98180.91;;;-1.64;79.85
71938;BME280;59810;48.800;9.086;2023-03-01T07:36:26;98176.81;;;-1.58;79.63
71938;BME280;59810;48.800;9.086;2023-03-01T07:38:52;98173.53;;;-1.52;79.20
71938;BME280;59810;48.800;9.086;2023-03-01T07:41:17;98170.03;;;-1.52;79.22
71938;BME280;59810;48.800;9.086;2023-03-01T07:43:43;98161.63;;;-1.48;79.30
71938;BME280;59810;48.800;9.086;2023-03-01T07:46:10;98173.06;;;-1.39;79.02
71938;BME280;59810;48.800;9.086;2023-03-01T07:48:36;98168.75;;;-1.32;78.57
71938;BME280;59810;48.800;9.086;2023-03-01T07:51:03;98163.84;;;-1.27;78.31
71938;BME280;59810;48.800;9.086;2023-03-01T07:53:29;98160.53;;;-1.21;77.95
71938;BME280;59810;48.800;9.086;2023-03-01T07:56:04;98156.91;;;-1.20;77.90
71938;BME280;59810;48.800;9.086;2023-03-01T07:58:30;98155.72;;;-1.17;77.60
71938;BME280;59810;48.800;9.086;2023-03-01T08:00:56;98155.06;;;-1.11;77.51
71938;BME280;59810;48.800;9.086;2023-03-01T08:03:21;98156.56;;;-1.09;77.25
71938;BME280;59810;48.800;9.086;2023-03-01T08:05:47;98152.94;;;-1.00;77.54
71938;BME280;59810;48.800;9.086;2023-03-01T08:08:12;98148.63;;;-1.01;77.46
71938;BME280;59810;48.800;9.086;2023-03-01T08:10:37;98149.00;;;-0.96;77.40
71938;BME280;59810;48.800;9.086;2023-03-01T08:13:02;98143.84;;;-0.89;77.28
71938;BME280;59810;48.800;9.086;2023-03-01T08:15:28;98148.31;;;-0.81;77.21
71938;BME280;59810;48.800;9.086;2023-03-01T08:17:53;98150.63;;;-0.78;75.75
71938;BME280;59810;48.800;9.086;2023-03-01T08:20:18;98151.28;;;-0.68;75.07
71938;BME280;59810;48.800;9.086;2023-03-01T08:22:44;98144.19;;;-0.59;75.50
71938;BME280;59810;48.800;9.086;2023-03-01T08:25:09;98144.19;;;-0.51;74.81
71938;BME280;59810;48.800;9.086;2023-03-01T08:27:35;98146.31;;;-0.39;74.30
71938;BME280;59810;48.800;9.086;2023-03-01T08:30:02;98140.34;;;-0.33;73.10
71938;BME280;59810;48.800;9.086;2023-03-01T08:32:35;98144.97;;;-0.26;73.66
71938;BME280;59810;48.800;9.086;2023-03-01T08:35:01;98140.00;;;-0.21;72.25
71938;BME280;59810;48.800;9.086;2023-03-01T08:37:26;98137.31;;;-0.13;72.60
71938;BME280;59810;48.800;9.086;2023-03-01T08:39:51;98135.97;;;-0.09;72.67
71938;BME280;59810;48.800;9.086;2023-03-01T08:42:17;98139.31;;;-0.15;72.37
71938;BME280;59810;48.800;9.086;2023-03-01T08:44:44;98130.81;;;-0.03;72.67
71938;BME280;59810;48.800;9.086;2023-03-01T08:47:09;98132.28;;;0.08;72.30
71938;BME280;59810;48.800;9.086;2023-03-01T08:49:35;98133.59;;;0.12;71.61
71938;BME280;59810;48.800;9.086;2023-03-01T08:52:04;98128.75;;;0.16;71.61
71938;BME280;59810;48.800;9.086;2023-03-01T08:54:29;98129.06;;;0.21;70.83
71938;BME280;59810;48.800;9.086;2023-03-01T08:56:55;98122.72;;;0.30;70.39
71938;BME280;59810;48.800;9.086;2023-03-01T08:59:23;98117.56;;;0.37;70.17
71938;BME280;59810;48.800;9.086;2023-03-01T09:01:50;98119.19;;;0.46;69.98
71938;BME280;59810;48.800;9.086;2023-03-01T09:04:15;98118.81;;;0.49;70.18
71938;BME280;59810;48.800;9.086;2023-03-01T09:06:41;98105.53;;;0.49;69.15
71938;BME280;59810;48.800;9.086;2023-03-01T09:09:13;98103.47;;;0.59;69.90
71938;BME280;59810;48.800;9.086;2023-03-01T09:11:44;98103.13;;;0.62;69.53
71938;BME280;59810;48.800;9.086;2023-03-01T09:14:12;98103.75;;;0.72;68.86
71938;BME280;59810;48.800;9.086;2023-03-01T09:16:37;98105.88;;;0.77;69.35
71938;BME280;59810;48.800;9.086;2023-03-01T09:19:03;98102.34;;;0.84;69.16
71938;BME280;59810;48.800;9.086;2023-03-01T09:21:29;98093.47;;;0.92;68.40
71938;BME280;59810;48.800;9.086;2023-03-01T09:23:55;98093.53;;;1.07;68.57
71938;BME280;59810;48.800;9.086;2023-03-01T09:26:22;98087.63;;;1.19;67.25
71938;BME280;59810;48.800;9.086;2023-03-01T09:28:50;98091.09;;;1.20;67.68
71938;BME280;59810;48.800;9.086;2023-03-01T09:31:17;98089.72;;;1.24;67.23
71938;BME280;59810;48.800;9.086;2023-03-01T09:33:44;98085.53;;;1.30;66.85
71938;BME280;59810;48.800;9.086;2023-03-01T09:36:16;98088.84;;;1.32;66.29
71938;BME280;59810;48.800;9.086;2023-03-01T09:38:45;98090.59;;;1.39;66.36
71938;BME280;59810;48.800;9.086;2023-03-01T09:41:30;98083.03;;;1.28;65.46
71938;BME280;59810;48.800;9.086;2023-03-01T09:46:42;98087.66;;;1.34;65.93
71938;BME280;59810;48.800;9.086;2023-03-01T09:49:15;98091.25;;;1.41;65.14
71938;BME280;59810;48.800;9.086;2023-03-01T09:51:50;98091.72;;;1.45;66.04
71938;BME280;59810;48.800;9.086;2023-03-01T09:54:19;98086.50;;;1.51;66.17
71938;BME280;59810;48.800;9.086;2023-03-01T09:56:54;98079.44;;;1.59;64.66
71938;BME280;59810;48.800;9.086;2023-03-01T09:59:27;98077.53;;;1.67;65.65
71938;BME280;59810;48.800;9.086;2023-03-01T10:04:46;98075.53;;;1.99;65.36
71938;BME280;59810;48.800;9.086;2023-03-01T10:10:38;98070.28;;;1.91;63.81
71938;BME280;59810;48.800;9.086;2023-03-01T10:13:33;98063.88;;;2.00;64.82
71938;BME280;59810;48.800;9.086;2023-03-01T10:16:05;98050.25;;;1.95;63.63
71938;BME280;59810;48.800;9.086;2023-03-01T10:18:35;98057.59;;;2.07;63.30
71938;BME280;59810;48.800;9.086;2023-03-01T10:21:12;98050.00;;;2.04;62.89
71938;BME280;59810;48.800;9.086;2023-03-01T10:23:39;98052.06;;;2.24;63.44
71938;BME280;59810;48.800;9.086;2023-03-01T10:31:22;98035.44;;;2.58;62.54
71938;BME280;59810;48.800;9.086;2023-03-01T10:33:53;98027.44;;;2.58;61.71
71938;BME280;59810;48.800;9.086;2023-03-01T10:36:21;98033.16;;;2.76;65.32
71938;BME280;59810;48.800;9.086;2023-03-01T10:38:51;98033.09;;;2.91;62.51
71938;BME280;59810;48.800;9.086;2023-03-01T10:41:19;98030.31;;;2.99;60.93
71938;BME280;59810;48.800;9.086;2023-03-01T10:43:48;98031.72;;;2.95;60.35
71938;BME280;59810;48.800;9.086;2023-03-01T10:46:35;98018.88;;;3.05;59.60
71938;BME280;59810;48.800;9.086;2023-03-01T10:49:27;98015.81;;;3.08;59.74
71938;BME280;59810;48.800;9.086;2023-03-01T10:51:53;98016.94;;;3.20;60.92
71938;BME280;59810;48.800;9.086;2023-03-01T10:54:29;98018.25;;;3.31;59.39
71938;BME280;59810;48.800;9.086;2023-03-01T10:56:57;98026.78;;;3.48;59.58
71938;BME280;59810;48.800;9.086;2023-03-01T11:07:54;97989.09;;;4.05;58.35
71938;BME280;59810;48.800;9.086;2023-03-01T11:10:32;97987.47;;;4.04;56.06
71938;BME280;59810;48.800;9.086;2023-03-01T11:13:12;97979.06;;;4.14;56.54
71938;BME280;59810;48.800;9.086;2023-03-01T11:15:39;97979.88;;;4.07;56.53
71938;BME280;59810;48.800;9.086;2023-03-01T11:18:18;97980.16;;;4.26;55.66
71938;BME280;59810;48.800;9.086;2023-03-01T11:20:44;97976.69;;;4.45;55.85
71938;BME280;59810;48.800;9.086;2023-03-01T11:23:12;97977.50;;;4.52;55.13
71938;BME280;59810;48.800;9.086;2023-03-01T11:25:54;97970.34;;;4.73;55.04
71938;BME280;59810;48.800;9.086;2023-03-01T11:28:20;97968.31;;;4.75;53.58
71938;BME280;59810;48.800;9.086;2023-03-01T11:31:00;97963.38;;;4.98;54.56
71938;BME280;59810;48.800;9.086;2023-03-01T11:33:50;97963.78;;;5.15;54.65
71938;BME280;59810;48.800;9.086;2023-03-01T11:39:24;97944.38;;;5.46;53.13
71938;BME280;59810;48.800;9.086;2023-03-01T11:42:00;97935.28;;;5.60;51.58
71938;BME280;59810;48.800;9.086;2023-03-01T11:44:28;97934.38;;;5.86;52.94
71938;BME280;59810;48.800;9.086;2023-03-01T11:58:17;97925.44;;;6.43;51.63
71938;BME280;59810;48.800;9.086;2023-03-01T12:06:00;97901.47;;;6.48;50.81
71938;BME280;59810;48.800;9.086;2023-03-01T12:08:41;97895.03;;;6.81;50.20
71938;BME280;59810;48.800;9.086;2023-03-01T12:11:28;97900.47;;;6.99;49.67
71938;BME280;59810;48.800;9.086;2023-03-01T12:19:14;97879.38;;;7.03;47.23
71938;BME280;59810;48.800;9.086;2023-03-01T12:24:47;97871.25;;;7.09;48.48
71938;BME280;59810;48.800;9.086;2023-03-01T12:30:26;97860.13;;;7.79;47.52
71938;BME280;59810;48.800;9.086;2023-03-01T12:33:02;97852.00;;;7.67;47.06
71938;BME280;59810;48.800;9.086;2023-03-01T12:38:40;97849.59;;;7.77;46.28
71938;BME280;59810;48.800;9.086;2023-03-01T12:41:31;97851.22;;;7.97;46.57
71938;BME280;59810;48.800;9.086;2023-03-01T12:47:15;97845.16;;;7.53;46.39
71938;BME280;59810;48.800;9.086;2023-03-01T12:49:48;97848.19;;;7.75;46.69
71938;BME280;59810;48.800;9.086;2023-03-01T12:52:43;97836.13;;;7.66;46.13
71938;BME280;59810;48.800;9.086;2023-03-01T12:55:24;97825.38;;;7.96;46.82
71938;BME280;59810;48.800;9.086;2023-03-01T12:58:04;97814.81;;;7.53;46.26
71938;BME280;59810;48.800;9.086;2023-03-01T13:03:22;97817.53;;;7.46;46.28
71938;BME280;59810;48.800;9.086;2023-03-01T13:08:49;97807.59;;;7.83;46.11
71938;BME280;59810;48.800;9.086;2023-03-01T13:11:23;97814.53;;;7.72;45.92
71938;BME280;59810;48.800;9.086;2023-03-01T13:13:51;97801.56;;;7.99;47.03
71938;BME280;59810;48.800;9.086;2023-03-01T13:16:39;97800.72;;;7.99;45.16
71938;BME280;59810;48.800;9.086;2023-03-01T13:21:43;97807.75;;;8.00;45.67
71938;BME280;59810;48.800;9.086;2023-03-01T13:32:19;97801.72;;;8.46;44.37
71938;BME280;59810;48.800;9.086;2023-03-01T13:34:47;97803.56;;;8.46;45.30
71938;BME280;59810;48.800;9.086;2023-03-01T13:37:31;97794.81;;;8.62;44.71
71938;BME280;59810;48.800;9.086;2023-03-01T13:40:00;97801.47;;;8.48;44.39
71938;BME280;59810;48.800;9.086;2023-03-01T13:42:49;97793.28;;;8.89;45.01
71938;BME280;59810;48.800;9.086;2023-03-01T13:45:38;97790.31;;;9.26;43.66
71938;BME280;59810;48.800;9.086;2023-03-01T13:48:22;97791.50;;;9.07;44.05
71938;BME280;59810;48.800;9.086;2023-03-01T13:50:52;97799.03;;;8.81;43.89
71938;BME280;59810;48.800;9.086;2023-03-01T13:53:22;97783.78;;;8.75;44.21
71938;BME280;59810;48.800;9.086;2023-03-01T13:55:56;97796.22;;;8.53;43.88
71938;BME280;59810;48.800;9.086;2023-03-01T13:58:46;97792.47;;;8.54;43.75
71938;BME280;59810;48.800;9.086;2023-03-01T14:03:49;97786.38;;;8.47;44.72
71938;BME280;59810;48.800;9.086;2023-03-01T14:06:18;97785.28;;;8.36;44.70
71938;BME280;59810;48.800;9.086;2023-03-01T14:08:46;97788.59;;;8.08;44.96
71938;BME280;59810;48.800;9.086;2023-03-01T14:11:39;97782.25;;;8.02;45.46
71938;BME280;59810;48.800;9.086;2023-03-01T14:19:39;97776.84;;;8.32;46.45
71938;BME280;59810;48.800;9.086;2023-03-01T14:25:04;97785.38;;;8.29;45.42
71938;BME280;59810;48.800;9.086;2023-03-01T14:27:37;97793.16;;;8.07;45.49
71938;BME280;59810;48.800;9.086;2023-03-01T14:30:13;97794.00;;;8.50;46.52
71938;BME280;59810;48.800;9.086;2023-03-01T14:32:40;97791.16;;;8.45;45.49
71938;BME280;59810;48.800;9.086;2023-03-01T14:35:36;97793.88;;;8.68;45.70
71938;BME280;59810;48.800;9.086;2023-03-01T14:38:02;97797.50;;;8.50;45.23
71938;BME280;59810;48.800;9.086;2023-03-01T14:40:32;97802.06;;;8.73;46.16
71938;BME280;59810;48.800;9.086;2023-03-01T14:42:59;97801.13;;;8.67;45.79
71938;BME280;59810;48.800;9.086;2023-03-01T14:45:28;97810.44;;;8.41;45.13
71938;BME280;59810;48.800;9.086;2023-03-01T14:47:55;97800.56;;;8.24;45.75
71938;BME280;59810;48.800;9.086;2023-03-01T14:50:27;97811.13;;;8.37;45.61
71938;BME280;59810;48.800;9.086;2023-03-01T14:52:56;97812.25;;;8.71;45.58
71938;BME280;59810;48.800;9.086;2023-03-01T14:55:30;97809.34;;;8.84;45.29